createdAt,value
2017-08-25T00:01:50.938Z,95.70
2017-08-25T00:04:18.747Z,96.00
2017-08-25T00:06:46.515Z,96.20
2017-08-25T00:09:14.302Z,96.40
2017-08-25T00:11:42.076Z,96.50
2017-08-25T00:14:09.826Z,96.80
2017-08-25T00:16:37.627Z,97.10
2017-08-25T00:19:05.373Z,97.40
2017-08-25T00:21:33.111Z,97.70
2017-08-25T00:24:01.906Z,98.20
2017-08-25T00:26:29.656Z,98.00
2017-08-25T00:28:57.459Z,98.30
2017-08-25T00:31:25.207Z,98.60
2017-08-25T00:33:52.953Z,98.70
2017-08-25T00:36:20.756Z,99.00
2017-08-25T00:38:48.499Z,99.10
2017-08-25T00:41:16.299Z,99.20
2017-08-25T00:43:44.076Z,99.30
2017-08-25T00:46:11.823Z,99.40
2017-08-25T00:48:39.607Z,99.60
2017-08-25T00:51:07.365Z,99.80
2017-08-25T00:53:35.551Z,99.80
2017-08-25T00:56:03.304Z,99.90
2017-08-25T00:58:31.051Z,99.90
2017-08-25T01:00:58.824Z,99.90
2017-08-25T01:03:26.580Z,99.90
2017-08-25T01:05:54.415Z,99.90
2017-08-25T01:08:22.167Z,99.90
2017-08-25T01:10:49.911Z,99.90
2017-08-25T01:13:17.695Z,99.90
2017-08-25T01:15:45.436Z,99.90
2017-08-25T01:18:13.238Z,99.90
2017-08-25T01:20:41.011Z,99.90
2017-08-25T01:23:08.788Z,99.90
2017-08-25T01:25:36.595Z,99.90
2017-08-25T01:28:04.358Z,99.90
2017-08-25T01:30:32.183Z,99.90
2017-08-25T01:32:59.951Z,99.90
2017-08-25T01:35:27.731Z,99.90
2017-08-25T01:37:55.515Z,99.90
2017-08-25T01:40:23.276Z,99.90
2017-08-25T01:42:51.091Z,99.90
2017-08-25T01:45:18.852Z,99.90
2017-08-25T01:47:46.614Z,99.90
2017-08-25T01:50:14.406Z,99.90
2017-08-25T01:52:42.176Z,99.90
2017-08-25T01:55:09.983Z,99.90
2017-08-25T01:57:37.746Z,99.90
2017-08-25T02:00:05.496Z,99.90
2017-08-25T02:02:33.273Z,99.90
2017-08-25T02:05:01.034Z,99.90
2017-08-25T02:07:28.863Z,99.90
2017-08-25T02:09:56.623Z,99.90
2017-08-25T02:12:24.364Z,99.90
2017-08-25T02:14:52.140Z,99.90
2017-08-25T02:17:19.897Z,99.90
2017-08-25T02:19:47.691Z,99.90
2017-08-25T02:22:15.445Z,99.90
2017-08-25T02:24:43.200Z,99.90
2017-08-25T02:27:10.991Z,99.90
2017-08-25T02:29:38.735Z,99.90
2017-08-25T02:32:06.538Z,99.90
2017-08-25T02:34:34.296Z,99.90
2017-08-25T02:37:02.059Z,99.90
2017-08-25T02:39:29.853Z,99.90
2017-08-25T02:41:57.600Z,99.90
2017-08-25T02:44:25.415Z,99.90
2017-08-25T02:46:53.158Z,99.90
2017-08-25T02:49:20.904Z,99.90
2017-08-25T02:51:48.679Z,99.90
2017-08-25T02:54:16.426Z,99.90
2017-08-25T02:56:44.245Z,99.90
2017-08-25T02:59:11.992Z,99.90
2017-08-25T03:01:39.734Z,99.90
2017-08-25T03:04:07.504Z,99.90
2017-08-25T03:06:35.244Z,99.90
2017-08-25T03:09:03.063Z,99.90
2017-08-25T03:11:30.811Z,99.90
2017-08-25T03:13:58.555Z,99.90
2017-08-25T03:16:26.339Z,99.90
2017-08-25T03:18:54.087Z,99.90
2017-08-25T03:21:21.889Z,99.90
2017-08-25T03:23:49.632Z,99.90
2017-08-25T03:26:17.379Z,99.90
2017-08-25T03:28:45.168Z,99.90
2017-08-25T03:31:12.909Z,99.90
2017-08-25T03:33:40.959Z,99.90
2017-08-25T03:36:08.707Z,99.90
2017-08-25T03:38:36.452Z,99.90
2017-08-25T03:41:04.234Z,99.90
2017-08-25T03:43:31.984Z,99.90
2017-08-25T03:45:59.779Z,99.90
2017-08-25T03:48:27.516Z,99.90
2017-08-25T03:50:55.254Z,99.90
2017-08-25T03:53:23.028Z,99.90
2017-08-25T03:55:50.775Z,99.90
2017-08-25T03:58:18.580Z,99.90
2017-08-25T04:00:46.323Z,99.90
2017-08-25T04:03:14.063Z,99.90
2017-08-25T04:05:41.837Z,99.90
2017-08-25T04:08:09.575Z,99.90
2017-08-25T04:10:37.375Z,99.90
2017-08-25T04:13:05.128Z,99.90
2017-08-25T04:15:32.870Z,99.90
2017-08-25T04:18:00.652Z,99.90
2017-08-25T04:20:28.403Z,99.90
2017-08-25T04:22:56.202Z,99.90
2017-08-25T04:25:23.944Z,99.90
2017-08-25T04:27:51.725Z,99.90
2017-08-25T04:30:19.495Z,99.90
2017-08-25T04:32:47.239Z,99.90
2017-08-25T04:35:15.055Z,99.90
2017-08-25T04:37:42.817Z,99.90
2017-08-25T04:40:10.590Z,99.90
2017-08-25T04:42:38.371Z,99.90
2017-08-25T04:45:06.113Z,99.90
2017-08-25T04:47:33.929Z,99.90
2017-08-25T04:50:01.677Z,99.90
2017-08-25T04:52:29.419Z,99.90
2017-08-25T04:54:57.195Z,99.90
2017-08-25T04:57:24.939Z,99.90
2017-08-25T04:59:52.749Z,99.90
2017-08-25T05:02:20.506Z,99.90
2017-08-25T05:04:48.264Z,99.90
2017-08-25T05:07:17.025Z,99.60
2017-08-25T05:09:44.820Z,98.90
2017-08-25T05:12:12.627Z,98.10
2017-08-25T05:14:40.375Z,96.90
2017-08-25T05:17:08.118Z,96.00
2017-08-25T05:19:35.892Z,95.30
2017-08-25T05:22:03.639Z,93.80
2017-08-25T05:24:31.444Z,93.00
2017-08-25T05:26:59.189Z,92.20
2017-08-25T05:29:26.928Z,90.70
2017-08-25T05:31:54.702Z,87.50
2017-08-25T05:34:22.455Z,85.50
2017-08-25T05:36:50.260Z,81.20
2017-08-25T05:39:18.005Z,77.90
2017-08-25T05:41:45.749Z,72.50
2017-08-25T05:44:13.524Z,68.10
2017-08-25T05:46:41.292Z,62.00
2017-08-25T05:49:09.092Z,56.70
2017-08-25T05:51:36.832Z,50.90
2017-08-25T05:54:04.575Z,48.20
2017-08-25T05:56:32.347Z,45.90
2017-08-25T05:59:00.087Z,44.80
2017-08-25T06:01:27.900Z,42.00
2017-08-25T06:03:55.649Z,41.40
2017-08-25T06:06:23.422Z,39.20
2017-08-25T06:08:51.195Z,36.60
2017-08-25T06:11:18.940Z,36.90
2017-08-25T06:13:46.747Z,36.20
2017-08-25T06:16:14.515Z,35.20
2017-08-25T06:18:42.272Z,34.60
2017-08-25T06:21:10.050Z,34.70
2017-08-25T06:23:37.791Z,35.30
2017-08-25T06:26:06.428Z,36.30
2017-08-25T06:28:34.171Z,35.20
2017-08-25T06:31:01.916Z,35.80
2017-08-25T06:33:29.698Z,35.30
2017-08-25T06:35:57.819Z,34.40
2017-08-25T06:38:25.639Z,32.50
2017-08-25T06:40:53.390Z,31.00
2017-08-25T06:43:21.144Z,32.90
2017-08-25T06:45:48.918Z,33.90
2017-08-25T06:48:17.425Z,34.70
2017-08-25T06:50:45.334Z,37.10
2017-08-25T06:53:13.083Z,39.00
2017-08-25T06:55:40.836Z,41.70
2017-08-25T06:58:08.628Z,43.80
2017-08-25T07:00:36.371Z,44.90
2017-08-25T07:03:04.172Z,44.90
2017-08-25T07:05:31.927Z,44.90
2017-08-25T07:07:59.679Z,44.80
2017-08-25T07:10:27.460Z,44.40
2017-08-25T07:12:55.205Z,45.40
2017-08-25T07:15:23.009Z,46.80
2017-08-25T07:17:50.752Z,46.80
2017-08-25T07:20:18.502Z,46.90
2017-08-25T07:22:47.659Z,47.80
2017-08-25T07:25:18.374Z,47.50
2017-08-25T07:27:46.216Z,47.90
2017-08-25T07:30:14.126Z,47.70
2017-08-25T07:32:41.867Z,47.60
2017-08-25T07:35:09.645Z,47.40
2017-08-25T07:37:37.400Z,46.10
2017-08-25T07:40:05.206Z,44.90
2017-08-25T07:42:32.951Z,45.00
2017-08-25T07:45:00.700Z,42.50
2017-08-25T07:47:28.476Z,39.70
2017-08-25T07:49:56.231Z,36.50
2017-08-25T07:52:24.035Z,34.30
2017-08-25T07:54:51.780Z,33.50
2017-08-25T07:57:19.528Z,30.60
2017-08-25T07:59:47.354Z,28.90
2017-08-25T08:02:15.113Z,28.00
2017-08-25T08:04:42.911Z,26.40
2017-08-25T08:07:10.660Z,25.90
2017-08-25T08:09:38.399Z,24.20
2017-08-25T08:12:06.175Z,23.20
2017-08-25T08:14:33.922Z,23.10
2017-08-25T08:17:01.733Z,22.60
2017-08-25T08:19:29.501Z,22.70
2017-08-25T08:21:57.248Z,23.20
2017-08-25T08:24:26.139Z,22.40
2017-08-25T08:26:54.743Z,22.40
2017-08-25T08:29:22.557Z,22.50
2017-08-25T08:31:50.330Z,22.60
2017-08-25T08:34:18.076Z,22.60
2017-08-25T08:36:45.854Z,22.80
2017-08-25T08:39:13.600Z,23.20
2017-08-25T08:41:41.404Z,22.00
2017-08-25T08:44:09.155Z,22.90
2017-08-25T08:46:36.912Z,23.60
2017-08-25T08:49:04.765Z,25.00
2017-08-25T08:51:32.513Z,26.00
2017-08-25T08:54:00.320Z,26.90
2017-08-25T08:56:28.068Z,26.90
2017-08-25T08:58:55.818Z,26.20
2017-08-25T09:01:23.592Z,25.40
2017-08-25T09:03:51.338Z,24.00
2017-08-25T09:06:36.747Z,22.50
2017-08-25T09:09:04.520Z,22.90
2017-08-25T09:11:32.324Z,22.20
2017-08-25T09:14:00.078Z,21.70
2017-08-25T09:16:27.825Z,22.20
2017-08-25T09:18:55.619Z,24.80
2017-08-25T09:21:23.404Z,26.60
2017-08-25T09:23:51.215Z,27.20
2017-08-25T09:26:18.963Z,26.90
2017-08-25T09:28:46.764Z,27.20
2017-08-25T09:31:14.543Z,28.90
2017-08-25T09:33:42.304Z,29.70
2017-08-25T09:36:10.112Z,29.20
2017-08-25T09:38:37.859Z,29.10
2017-08-25T09:41:05.620Z,29.80
2017-08-25T09:43:33.432Z,32.00
2017-08-25T09:46:01.186Z,33.60
2017-08-25T09:48:29.252Z,35.20
2017-08-25T09:50:56.992Z,34.90
2017-08-25T09:53:24.755Z,34.70
2017-08-25T09:55:52.532Z,35.00
2017-08-25T09:58:20.283Z,34.40
2017-08-25T10:00:48.084Z,34.50
2017-08-25T10:03:15.830Z,34.30
2017-08-25T10:05:43.652Z,33.30
2017-08-25T10:08:11.489Z,33.80
2017-08-25T10:10:39.240Z,33.80
2017-08-25T10:13:07.057Z,34.20
2017-08-25T10:15:35.248Z,35.20
2017-08-25T10:18:03.000Z,35.70
2017-08-25T10:20:30.816Z,35.70
2017-08-25T10:22:58.557Z,35.20
2017-08-25T10:25:26.363Z,33.20
2017-08-25T10:27:54.161Z,31.10
2017-08-25T10:30:21.907Z,30.80
2017-08-25T10:32:49.935Z,31.20
2017-08-25T10:35:29.639Z,30.20
2017-08-25T10:38:09.244Z,30.20
2017-08-25T10:40:48.763Z,29.30
2017-08-25T10:43:28.540Z,29.90
2017-08-25T10:45:56.291Z,29.80
2017-08-25T10:48:24.084Z,29.60
2017-08-25T10:50:51.832Z,28.90
2017-08-25T10:53:19.571Z,28.90
2017-08-25T10:55:47.345Z,29.00
2017-08-25T10:58:15.098Z,29.40
2017-08-25T11:00:42.907Z,29.10
2017-08-25T11:03:10.644Z,28.50
2017-08-25T11:05:38.383Z,28.10
2017-08-25T11:08:06.149Z,28.20
2017-08-25T11:10:33.887Z,28.50
2017-08-25T11:13:01.714Z,29.20
2017-08-25T11:15:29.457Z,30.20
2017-08-25T11:17:57.204Z,30.10
2017-08-25T11:20:24.985Z,30.00
2017-08-25T11:22:52.728Z,31.90
2017-08-25T11:25:20.523Z,31.80
2017-08-25T11:27:48.269Z,32.40
2017-08-25T11:30:16.013Z,31.00
2017-08-25T11:32:43.795Z,30.50
2017-08-25T11:35:11.539Z,31.10
2017-08-25T11:37:39.340Z,31.40
2017-08-25T11:40:07.085Z,31.60
2017-08-25T11:42:34.842Z,32.00
2017-08-25T11:45:02.660Z,33.10
2017-08-25T11:47:30.405Z,33.20
2017-08-25T11:49:58.427Z,33.40
2017-08-25T11:52:26.211Z,32.30
2017-08-25T11:54:53.948Z,30.80
2017-08-25T11:57:21.721Z,30.70
2017-08-25T11:59:49.467Z,31.00
2017-08-25T12:02:17.434Z,31.10
2017-08-25T12:04:45.179Z,30.60
2017-08-25T12:07:12.923Z,30.70
2017-08-25T12:09:40.686Z,30.60
2017-08-25T12:12:08.440Z,30.10
2017-08-25T12:14:36.230Z,30.40
2017-08-25T12:17:03.987Z,29.90
2017-08-25T12:19:31.725Z,30.40
2017-08-25T12:21:59.504Z,30.00
2017-08-25T12:24:27.236Z,29.60
2017-08-25T12:26:55.053Z,30.10
2017-08-25T12:29:22.787Z,30.50
2017-08-25T12:31:50.528Z,29.90
2017-08-25T12:34:18.295Z,30.60
2017-08-25T12:36:46.035Z,29.80
2017-08-25T12:39:14.068Z,29.60
2017-08-25T12:41:41.824Z,29.00
2017-08-25T12:44:09.567Z,28.90
2017-08-25T12:46:37.335Z,28.50
2017-08-25T12:49:05.085Z,28.50
2017-08-25T12:51:32.887Z,27.40
2017-08-25T12:54:00.632Z,27.60
2017-08-25T12:56:28.371Z,28.50
2017-08-25T12:58:56.139Z,28.00
2017-08-25T13:01:23.880Z,28.20
2017-08-25T13:03:51.674Z,28.90
2017-08-25T13:06:19.423Z,28.80
2017-08-25T13:08:47.160Z,29.20
2017-08-25T13:11:14.927Z,28.70
2017-08-25T13:13:42.672Z,28.80
2017-08-25T13:16:10.480Z,29.40
2017-08-25T13:18:38.220Z,28.30
2017-08-25T13:21:05.962Z,28.30
2017-08-25T13:23:33.735Z,29.30
2017-08-25T13:26:01.487Z,29.50
2017-08-25T13:28:29.284Z,29.30
2017-08-25T13:30:57.033Z,29.20
2017-08-25T13:33:24.768Z,29.20
2017-08-25T13:35:52.544Z,28.60
2017-08-25T13:38:20.301Z,28.80
2017-08-25T13:40:48.102Z,29.40
2017-08-25T13:43:15.836Z,28.50
2017-08-25T13:45:43.584Z,29.20
2017-08-25T13:48:11.351Z,28.20
2017-08-25T13:50:39.089Z,28.80
2017-08-25T13:53:06.896Z,27.80
2017-08-25T13:55:34.632Z,27.90
2017-08-25T13:58:02.367Z,27.80
2017-08-25T14:00:30.135Z,28.80
2017-08-25T14:02:57.875Z,28.60
2017-08-25T14:05:25.663Z,28.60
2017-08-25T14:07:53.410Z,27.90
2017-08-25T14:10:21.144Z,27.90
2017-08-25T14:12:48.907Z,28.30
2017-08-25T14:15:16.643Z,27.60
2017-08-25T14:17:44.416Z,28.20
2017-08-25T14:20:12.256Z,28.40
2017-08-25T14:22:40.003Z,27.20
2017-08-25T14:25:07.767Z,27.30
2017-08-25T14:27:35.519Z,27.60
2017-08-25T14:30:03.323Z,27.60
2017-08-25T14:32:31.060Z,27.00
2017-08-25T14:34:58.796Z,26.70
2017-08-25T14:37:26.567Z,27.50
2017-08-25T14:39:54.304Z,27.30
2017-08-25T14:42:22.097Z,27.00
2017-08-25T14:44:49.840Z,27.00
2017-08-25T14:47:17.575Z,27.50
2017-08-25T14:49:45.347Z,27.90
2017-08-25T14:52:13.080Z,27.80
2017-08-25T14:54:40.872Z,27.60
2017-08-25T14:57:08.619Z,27.40
2017-08-25T14:59:36.355Z,28.00
2017-08-25T15:02:04.241Z,28.00
2017-08-25T15:04:31.981Z,28.70
2017-08-25T15:06:59.792Z,29.20
2017-08-25T15:09:27.548Z,29.40
2017-08-25T15:11:55.283Z,29.20
2017-08-25T15:14:23.060Z,29.20
2017-08-25T15:16:50.838Z,28.80
2017-08-25T15:19:18.636Z,28.90
2017-08-25T15:21:46.372Z,28.80
2017-08-25T15:24:14.109Z,29.60
2017-08-25T15:26:41.883Z,29.50
2017-08-25T15:29:12.899Z,29.60
2017-08-25T15:31:40.704Z,30.00
2017-08-25T15:34:08.440Z,29.90
2017-08-25T15:36:36.176Z,30.00
2017-08-25T15:39:03.992Z,30.80
2017-08-25T15:41:31.749Z,31.20
2017-08-25T15:43:59.559Z,31.70
2017-08-25T15:46:27.363Z,32.10
2017-08-25T15:48:55.115Z,31.50
2017-08-25T15:51:22.892Z,31.50
2017-08-25T15:53:50.631Z,32.20
2017-08-25T15:56:18.434Z,32.40
2017-08-25T15:58:46.184Z,31.80
2017-08-25T16:01:13.949Z,31.50
2017-08-25T16:03:41.729Z,31.90
2017-08-25T16:06:10.462Z,32.20
2017-08-25T16:08:38.285Z,32.50
2017-08-25T16:11:06.023Z,33.20
2017-08-25T16:13:33.895Z,33.20
2017-08-25T16:16:01.663Z,33.30
2017-08-25T16:18:29.713Z,34.00
2017-08-25T16:20:57.514Z,33.30
2017-08-25T16:23:25.260Z,34.00
2017-08-25T16:25:53.005Z,34.00
2017-08-25T16:28:20.776Z,34.30
2017-08-25T16:30:48.515Z,34.50
2017-08-25T16:33:16.324Z,34.50
2017-08-25T16:35:44.067Z,34.40
2017-08-25T16:38:11.803Z,34.80
2017-08-25T16:40:39.576Z,35.40
2017-08-25T16:43:07.327Z,35.70
2017-08-25T16:45:35.128Z,35.80
2017-08-25T16:48:02.924Z,35.80
2017-08-25T16:50:30.669Z,35.40
2017-08-25T16:52:58.463Z,36.00
2017-08-25T16:55:26.204Z,35.70
2017-08-25T16:57:54.007Z,36.10
2017-08-25T17:00:21.748Z,37.40
2017-08-25T17:02:49.738Z,36.50
2017-08-25T17:05:17.602Z,36.90
2017-08-25T17:07:45.339Z,37.20
2017-08-25T17:10:13.140Z,37.40
2017-08-25T17:12:40.877Z,37.60
2017-08-25T17:15:08.624Z,37.50
2017-08-25T17:17:36.489Z,38.00
2017-08-25T17:20:04.243Z,38.00
2017-08-25T17:22:32.043Z,38.80
2017-08-25T17:25:00.499Z,39.20
2017-08-25T17:27:28.250Z,39.90
2017-08-25T17:29:56.024Z,39.60
2017-08-25T17:32:23.769Z,40.70
2017-08-25T17:34:51.570Z,40.90
2017-08-25T17:37:20.118Z,40.70
2017-08-25T17:39:47.860Z,40.90
2017-08-25T17:42:15.718Z,41.70
2017-08-25T17:44:43.517Z,41.60
2017-08-25T17:47:11.329Z,42.30
2017-08-25T17:49:39.081Z,43.50
2017-08-25T17:52:07.931Z,44.10
2017-08-25T17:54:35.710Z,44.30
2017-08-25T17:57:03.480Z,45.30
2017-08-25T17:59:31.292Z,45.70
2017-08-25T18:01:59.047Z,46.50
2017-08-25T18:04:26.796Z,46.80
2017-08-25T18:06:54.604Z,47.10
2017-08-25T18:09:22.780Z,47.30
2017-08-25T18:11:50.588Z,47.90
2017-08-25T18:14:18.783Z,48.00
2017-08-25T18:16:46.725Z,48.80
2017-08-25T18:19:14.507Z,51.10
2017-08-25T18:21:42.281Z,51.80
2017-08-25T18:24:10.125Z,52.20
2017-08-25T18:26:37.964Z,53.50
2017-08-25T18:29:05.746Z,53.80
2017-08-25T18:31:33.636Z,56.40
2017-08-25T18:34:01.422Z,57.90
2017-08-25T18:36:29.295Z,60.50
2017-08-25T18:38:57.082Z,60.40
2017-08-25T18:41:24.827Z,61.10
2017-08-25T18:43:52.642Z,61.40
2017-08-25T18:46:20.401Z,62.20
2017-08-25T18:48:48.208Z,63.00
2017-08-25T18:51:15.974Z,62.80
2017-08-25T18:53:43.715Z,63.80
2017-08-25T18:56:11.502Z,63.60
2017-08-25T18:58:39.252Z,64.30
2017-08-25T19:01:08.049Z,65.10
2017-08-25T19:03:35.888Z,65.70
2017-08-25T19:06:03.744Z,67.50
2017-08-25T19:08:31.557Z,68.40
2017-08-25T19:10:59.313Z,69.00
2017-08-25T19:13:27.189Z,69.80
2017-08-25T19:15:54.959Z,72.30
2017-08-25T19:18:22.746Z,74.50
2017-08-25T19:20:50.544Z,73.50
2017-08-25T19:23:18.334Z,73.50
2017-08-25T19:25:46.155Z,74.30
2017-08-25T19:28:13.921Z,76.80
2017-08-25T19:30:41.748Z,78.00
2017-08-25T19:33:10.190Z,76.70
2017-08-25T19:35:39.868Z,76.90
2017-08-25T19:38:07.744Z,77.40
2017-08-25T19:40:38.053Z,80.20
2017-08-25T19:43:07.205Z,81.40
2017-08-25T19:45:34.987Z,82.90
2017-08-25T19:48:02.732Z,84.90
2017-08-25T19:50:30.730Z,85.60
2017-08-25T19:53:01.109Z,85.60
2017-08-25T19:55:28.906Z,85.80
2017-08-25T19:57:57.346Z,86.30
2017-08-25T20:00:25.133Z,85.00
2017-08-25T20:02:53.798Z,85.50
2017-08-25T20:05:21.572Z,86.10
2017-08-25T20:07:50.023Z,85.90
2017-08-25T20:10:17.827Z,86.80
2017-08-25T20:12:45.573Z,90.30
2017-08-25T20:15:13.371Z,89.60
2017-08-25T20:17:41.119Z,90.00
2017-08-25T20:20:08.866Z,90.40
2017-08-25T20:22:36.655Z,90.30
2017-08-25T20:25:04.413Z,90.40
2017-08-25T20:27:32.292Z,90.40
2017-08-25T20:30:00.049Z,90.70
2017-08-25T20:32:27.795Z,90.50
2017-08-25T20:34:55.616Z,90.30
2017-08-25T20:37:23.375Z,90.80
2017-08-25T20:39:51.180Z,91.20
2017-08-25T20:42:18.921Z,91.20
2017-08-25T20:44:46.664Z,91.50
2017-08-25T20:47:14.435Z,91.70
2017-08-25T20:49:42.184Z,91.80
2017-08-25T20:52:09.986Z,92.10
2017-08-25T20:54:37.731Z,92.30
2017-08-25T20:57:05.475Z,93.00
2017-08-25T20:59:33.253Z,93.10
2017-08-25T21:02:01.053Z,93.30
2017-08-25T21:04:28.858Z,93.50
2017-08-25T21:06:56.623Z,93.80
2017-08-25T21:09:24.377Z,94.10
2017-08-25T21:11:52.160Z,93.90
2017-08-25T21:14:19.905Z,94.30
2017-08-25T21:16:47.710Z,94.60
2017-08-25T21:19:15.456Z,95.00
2017-08-25T21:21:43.211Z,95.10
2017-08-25T21:24:11.001Z,95.60
2017-08-25T21:26:38.749Z,95.50
2017-08-25T21:29:06.561Z,95.60
2017-08-25T21:31:34.314Z,95.60
2017-08-25T21:34:02.068Z,95.70
2017-08-25T21:36:29.857Z,96.10
2017-08-25T21:38:57.608Z,96.20
2017-08-25T21:41:25.413Z,96.40
2017-08-25T21:43:53.160Z,96.50
2017-08-25T21:46:20.908Z,96.70
2017-08-25T21:48:48.684Z,96.90
2017-08-25T21:51:16.431Z,97.20
2017-08-25T21:53:44.248Z,97.10
2017-08-25T21:56:12.000Z,97.20
2017-08-25T21:58:39.753Z,97.10
2017-08-25T22:01:07.528Z,97.10
2017-08-25T22:03:35.275Z,97.10
2017-08-25T22:06:03.077Z,97.10
2017-08-25T22:08:30.824Z,97.40
2017-08-25T22:10:58.571Z,97.40
2017-08-25T22:13:26.344Z,97.50
2017-08-25T22:15:54.088Z,97.60
2017-08-25T22:18:21.883Z,97.80
2017-08-25T22:20:49.636Z,97.90
2017-08-25T22:23:17.381Z,98.10
2017-08-25T22:25:45.160Z,98.30
2017-08-25T22:28:12.908Z,98.10
2017-08-25T22:30:40.713Z,98.30
2017-08-25T22:33:08.459Z,98.20
2017-08-25T22:35:36.242Z,98.30
2017-08-25T22:38:04.029Z,98.70
2017-08-25T22:40:31.773Z,98.80
2017-08-25T22:42:59.583Z,98.70
2017-08-25T22:45:27.344Z,98.60
2017-08-25T22:47:55.100Z,98.70
2017-08-25T22:50:22.873Z,98.70
2017-08-25T22:52:50.614Z,98.70
2017-08-25T22:55:18.420Z,98.50
2017-08-25T22:57:47.054Z,98.40
2017-08-25T23:00:14.797Z,98.70
2017-08-25T23:02:42.595Z,98.90
2017-08-25T23:05:10.338Z,99.10
2017-08-25T23:07:38.136Z,99.20
2017-08-25T23:10:05.878Z,99.20
2017-08-25T23:12:33.620Z,99.30
2017-08-25T23:15:01.396Z,99.20
2017-08-25T23:17:29.156Z,99.30
2017-08-25T23:19:56.959Z,99.40
2017-08-25T23:22:24.708Z,99.20
2017-08-25T23:24:52.452Z,98.90
2017-08-25T23:27:20.224Z,99.10
2017-08-25T23:29:47.964Z,99.00
2017-08-25T23:32:15.767Z,98.90
2017-08-25T23:34:43.535Z,98.70
2017-08-25T23:37:11.291Z,98.60
2017-08-25T23:39:39.101Z,98.40
2017-08-25T23:42:06.850Z,98.20
2017-08-25T23:44:34.860Z,98.20
2017-08-25T23:47:02.615Z,98.30
2017-08-25T23:49:30.359Z,98.40
2017-08-25T23:51:58.140Z,98.60
2017-08-25T23:54:25.902Z,98.60
2017-08-25T23:56:53.699Z,98.90
2017-08-25T23:59:21.441Z,98.80
